Time;durP1;ratioP1;P1;durP2;ratioP2;P2;SDS_P1;SDS_P2;PMS_P1;PMS_P2;Temp;Humidity;BMP_temperature;BMP_pressure;BME280_temperature;BME280_humidity;BME280_pressure;Samples;Min_cycle;Max_cycle;Signal;HPM_P1;HPM_P2
2021/12/17 00:00:58;;;;;;;355.98;41.20;;;;;;;;;;5078300;28;20170;-61
2021/12/17 00:03:35;;;;;;;329.42;41.00;;;;;;;;;;5086800;28;20063;-61
2021/12/17 00:06:15;;;;;;;230.32;37.25;;;;;;;;;;5087975;28;20141;-61
2021/12/17 00:08:43;;;;;;;271.42;41.10;;;;;;;;;;5081686;28;20070;-61
2021/12/17 00:11:10;;;;;;;209.55;37.17;;;;;;;;;;5076020;28;20506;-61
2021/12/17 00:13:38;;;;;;;241.73;39.53;;;;;;;;;;5078782;28;20169;-62
2021/12/17 00:16:13;;;;;;;229.13;38.85;;;;;;;;;;5079096;28;20146;-61
2021/12/17 00:18:55;;;;;;;249.30;41.28;;;;;;;;;;5079397;28;20481;-61
2021/12/17 00:48:50;;;;;;;341.98;46.55;;;;;;;;;;5086415;28;20051;-61
2021/12/17 00:54:02;;;;;;;321.73;43.53;;;;;;;;;;5090330;28;20101;-61
2021/12/17 00:56:28;;;;;;;232.48;39.08;;;;;;;;;;5089630;28;20044;-61
2021/12/17 00:58:55;;;;;;;321.50;43.70;;;;;;;;;;5087803;28;20036;-61
2021/12/17 01:01:21;;;;;;;249.65;39.88;;;;;;;;;;5082337;28;20075;-62
2021/12/17 01:03:48;;;;;;;196.95;37.40;;;;;;;;;;5088730;28;20032;-61
2021/12/17 01:06:14;;;;;;;183.23;35.20;;;;;;;;;;5086327;28;20510;-62
2021/12/17 01:08:41;;;;;;;187.63;36.17;;;;;;;;;;5079442;28;20045;-61
2021/12/17 01:11:07;;;;;;;177.07;34.90;;;;;;;;;;5083608;28;20032;-61
2021/12/17 01:13:34;;;;;;;179.20;34.78;;;;;;;;;;5083398;28;20048;-61
2021/12/17 01:16:00;;;;;;;196.80;35.45;;;;;;;;;;5086866;28;20043;-61
2021/12/17 01:18:39;;;;;;;164.40;35.00;;;;;;;;;;5088899;28;20051;-61
2021/12/17 01:21:23;;;;;;;192.15;33.58;;;;;;;;;;5088118;28;20383;-61
2021/12/17 01:24:33;;;;;;;208.40;37.40;;;;;;;;;;5086244;28;20159;-61
2021/12/17 01:40:50;;;;;;;108.05;27.58;;;;;;;;;;5081944;28;20033;-61
2021/12/17 01:43:03;;;;;;;121.97;28.27;;;;;;;;;;5086100;28;20503;-61
2021/12/17 01:45:35;;;;;;;116.97;27.02;;;;;;;;;;5079154;28;20052;-61
2021/12/17 01:48:03;;;;;;;155.15;29.75;;;;;;;;;;5079927;28;20515;-61
2021/12/17 01:56:15;;;;;;;136.65;28.27;;;;;;;;;;5084287;28;20459;-61
2021/12/17 02:01:28;;;;;;;156.52;28.42;;;;;;;;;;5088363;28;20121;-61
2021/12/17 02:03:55;;;;;;;134.25;27.90;;;;;;;;;;5089698;28;20404;-61
2021/12/17 02:06:23;;;;;;;145.32;28.30;;;;;;;;;;5086461;28;20122;-61
2021/12/17 02:08:51;;;;;;;126.43;27.42;;;;;;;;;;5085090;28;20043;-61
2021/12/17 02:12:07;;;;;;;161.07;29.92;;;;;;;;;;5084739;28;20368;-61
2021/12/17 02:30:50;;;;;;;228.60;31.75;;;;;;;;;;5083700;28;20527;-61
2021/12/17 02:33:16;;;;;;;;;;;;;;;;;;5085602;28;20040;-62
2021/12/17 02:35:45;;;;;;;187.73;31.55;;;;;;;;;;5077393;28;20364;-61
2021/12/17 02:38:13;;;;;;;196.07;32.75;;;;;;;;;;5087454;28;20045;-61
2021/12/17 02:46:09;;;;;;;163.35;31.38;;;;;;;;;;5087541;28;20079;-61
2021/12/17 02:48:36;;;;;;;210.90;34.83;;;;;;;;;;5084290;28;20423;-61
2021/12/17 02:51:03;;;;;;;336.00;41.30;;;;;;;;;;5083329;28;20052;-61
2021/12/17 02:53:30;;;;;;;286.33;40.28;;;;;;;;;;5082988;28;20040;-61
2021/12/17 02:56:01;;;;;;;239.63;36.33;;;;;;;;;;5081443;28;20044;-61
2021/12/17 02:58:28;;;;;;;409.92;45.38;;;;;;;;;;5083058;28;20111;-61
2021/12/17 03:00:54;;;;;;;228.80;36.05;;;;;;;;;;5084426;28;20476;-61
2021/12/17 03:03:22;;;;;;;215.30;34.30;;;;;;;;;;5083385;28;20071;-61
2021/12/17 03:05:50;;;;;;;262.38;36.42;;;;;;;;;;5081767;28;20040;-61
2021/12/17 03:08:17;;;;;;;255.98;36.13;;;;;;;;;;5088888;28;20036;-61
2021/12/17 03:10:44;;;;;;;211.13;34.10;;;;;;;;;;5082816;28;20036;-61
2021/12/17 03:13:11;;;;;;;260.75;35.35;;;;;;;;;;5086686;28;20484;-61
2021/12/17 03:23:27;;;;;;;178.23;28.60;;;;;;;;;;5084117;28;20127;-61
2021/12/17 03:25:54;;;;;;;160.30;28.83;;;;;;;;;;5084249;28;20040;-62
2021/12/17 03:28:20;;;;;;;129.50;25.48;;;;;;;;;;5082058;28;20499;-61
2021/12/17 03:30:47;;;;;;;166.13;26.65;;;;;;;;;;5085885;28;20032;-61
2021/12/17 03:33:13;;;;;;;247.13;29.10;;;;;;;;;;5087690;28;20428;-61
2021/12/17 03:35:40;;;;;;;223.52;27.42;;;;;;;;;;5085362;28;20044;-61
2021/12/17 03:38:06;;;;;;;188.45;24.95;;;;;;;;;;5078601;28;20455;-61
2021/12/17 03:40:33;;;;;;;323.73;29.85;;;;;;;;;;5081608;28;20135;-62
2021/12/17 03:43:04;;;;;;;154.10;23.75;;;;;;;;;;5080942;28;20032;-61
2021/12/17 03:45:30;;;;;;;186.98;24.65;;;;;;;;;;5080469;28;20508;-61
2021/12/17 03:47:56;;;;;;;313.77;31.42;;;;;;;;;;5079322;28;20049;-61
2021/12/17 03:50:23;;;;;;;213.48;27.30;;;;;;;;;;5080759;28;20396;-61
2021/12/17 03:52:50;;;;;;;257.70;26.48;;;;;;;;;;5085885;28;20059;-61
2021/12/17 03:55:16;;;;;;;194.75;26.27;;;;;;;;;;5082844;28;20040;-61
2021/12/17 03:57:42;;;;;;;221.20;25.23;;;;;;;;;;5087602;28;20036;-61
2021/12/17 04:00:10;;;;;;;213.32;26.05;;;;;;;;;;5079813;28;20051;-61
2021/12/17 04:02:36;;;;;;;286.55;29.45;;;;;;;;;;5077585;28;20067;-61
2021/12/17 04:05:03;;;;;;;186.02;25.27;;;;;;;;;;5074278;28;20048;-61
2021/12/17 04:07:29;;;;;;;220.73;25.15;;;;;;;;;;5083944;28;20487;-61
2021/12/17 04:09:55;;;;;;;209.23;25.08;;;;;;;;;;5082400;28;20043;-61
2021/12/17 04:12:30;;;;;;;164.80;21.83;;;;;;;;;;5081757;28;20644;-61
2021/12/17 04:14:57;;;;;;;144.57;21.65;;;;;;;;;;5085900;28;20166;-61
2021/12/17 04:17:26;;;;;;;156.77;21.17;;;;;;;;;;5086709;28;20052;-61
2021/12/17 04:19:52;;;;;;;190.10;22.23;;;;;;;;;;5082243;28;20047;-61
2021/12/17 04:22:18;;;;;;;134.68;20.00;;;;;;;;;;5084582;28;20109;-61
2021/12/17 04:24:44;;;;;;;202.30;21.92;;;;;;;;;;5085101;28;20388;-61
2021/12/17 04:27:11;;;;;;;176.80;21.88;;;;;;;;;;5083978;28;20036;-61
2021/12/17 04:29:42;;;;;;;138.02;19.08;;;;;;;;;;5087139;28;20068;-61
2021/12/17 04:32:08;;;;;;;239.60;21.92;;;;;;;;;;5084589;28;20079;-61
2021/12/17 04:34:34;;;;;;;234.07;23.25;;;;;;;;;;5090735;28;20040;-61
2021/12/17 04:37:00;;;;;;;154.75;21.30;;;;;;;;;;5089725;28;20036;-61
2021/12/17 04:39:27;;;;;;;163.95;20.95;;;;;;;;;;5084852;28;20051;-62
2021/12/17 04:42:05;;;;;;;205.30;21.73;;;;;;;;;;5089546;28;20417;-61
2021/12/17 04:44:35;;;;;;;133.82;18.20;;;;;;;;;;5085641;28;20066;-61
2021/12/17 04:57:39;;;;;;;180.13;21.17;;;;;;;;;;5093413;28;20044;-61
2021/12/17 05:00:06;;;;;;;154.93;22.33;;;;;;;;;;5084895;28;20483;-61
2021/12/17 05:02:36;;;;;;;135.13;20.10;;;;;;;;;;5089678;28;20439;-61
2021/12/17 05:05:06;;;;;;;114.88;19.83;;;;;;;;;;5083232;28;20040;-62
2021/12/17 05:07:34;;;;;;;151.18;22.60;;;;;;;;;;5085708;28;20044;-61
2021/12/17 05:20:51;;;;;;;201.30;24.05;;;;;;;;;;5089712;28;20052;-61
2021/12/17 05:23:22;;;;;;;156.13;20.45;;;;;;;;;;5086030;28;20116;-61
2021/12/17 05:25:49;;;;;;;152.20;21.38;;;;;;;;;;5085710;28;20414;-61
2021/12/17 05:28:15;;;;;;;213.77;23.17;;;;;;;;;;5086289;28;20040;-62
2021/12/17 05:30:46;;;;;;;177.45;22.95;;;;;;;;;;5084532;28;20451;-61
2021/12/17 05:33:14;;;;;;;125.10;19.15;;;;;;;;;;5085171;28;20036;-62
2021/12/17 05:35:40;;;;;;;159.88;21.70;;;;;;;;;;5084494;28;20372;-61
2021/12/17 05:38:07;;;;;;;173.43;23.27;;;;;;;;;;5077671;28;20044;-61
2021/12/17 05:40:33;;;;;;;90.07;16.92;;;;;;;;;;5090891;28;20059;-62
2021/12/17 05:43:01;;;;;;;103.22;17.55;;;;;;;;;;5086321;28;20131;-61
2021/12/17 05:45:34;;;;;;;96.63;16.50;;;;;;;;;;5083261;28;20055;-61
2021/12/17 05:48:02;;;;;;;117.38;18.90;;;;;;;;;;5088857;28;20091;-61
2021/12/17 05:50:29;;;;;;;86.78;16.65;;;;;;;;;;5081069;28;20044;-61
2021/12/17 05:52:55;;;;;;;89.22;14.93;;;;;;;;;;5085373;28;20044;-62
2021/12/17 05:55:21;;;;;;;99.70;15.93;;;;;;;;;;5083826;28;20093;-61
2021/12/17 05:57:47;;;;;;;87.57;16.67;;;;;;;;;;5079792;28;20523;-63
2021/12/17 06:00:14;;;;;;;136.57;19.83;;;;;;;;;;5088272;28;20054;-62
2021/12/17 06:02:40;;;;;;;86.55;15.95;;;;;;;;;;5090265;28;20487;-61
2021/12/17 06:05:07;;;;;;;106.18;19.02;;;;;;;;;;5088330;28;20094;-61
2021/12/17 06:07:33;;;;;;;144.20;18.15;;;;;;;;;;5080347;28;20037;-61
2021/12/17 06:10:02;;;;;;;132.95;18.88;;;;;;;;;;5084648;28;20036;-61
2021/12/17 06:12:28;;;;;;;144.85;19.48;;;;;;;;;;5085956;28;20531;-61
2021/12/17 06:14:54;;;;;;;103.60;18.88;;;;;;;;;;5084865;28;20391;-61
2021/12/17 06:17:21;;;;;;;105.90;18.13;;;;;;;;;;5087189;28;20511;-62
2021/12/17 06:19:47;;;;;;;90.97;17.70;;;;;;;;;;5084075;28;20045;-62
2021/12/17 06:22:14;;;;;;;94.85;16.05;;;;;;;;;;5083300;28;20044;-61
2021/12/17 06:24:44;;;;;;;161.98;21.48;;;;;;;;;;5086005;28;20098;-61
2021/12/17 06:27:11;;;;;;;110.28;18.45;;;;;;;;;;5086558;28;20051;-62
2021/12/17 06:29:37;;;;;;;107.68;18.80;;;;;;;;;;5080943;28;20158;-62
2021/12/17 06:32:04;;;;;;;136.00;20.75;;;;;;;;;;5081117;28;20051;-62
2021/12/17 06:34:30;;;;;;;129.45;19.17;;;;;;;;;;5075153;28;20052;-62
2021/12/17 06:36:57;;;;;;;118.15;20.88;;;;;;;;;;5078303;28;20044;-62
2021/12/17 06:39:24;;;;;;;186.75;23.55;;;;;;;;;;5088700;28;20044;-62
2021/12/17 06:41:50;;;;;;;110.70;19.08;;;;;;;;;;5090659;28;20040;-62
2021/12/17 06:44:22;;;;;;;85.78;17.85;;;;;;;;;;5093443;28;20044;-62
2021/12/17 07:08:45;;;;;;;110.15;18.45;;;;;;;;;;5090716;28;20113;-62
2021/12/17 07:10:43;;;;;;;118.80;18.83;;;;;;;;;;5090504;28;20059;-62
2021/12/17 07:19:40;;;;;;;198.05;23.77;;;;;;;;;;5088329;28;20489;-62
2021/12/17 07:32:18;;;;;;;140.77;23.10;;;;;;;;;;5090298;28;20067;-61
2021/12/17 07:39:34;;;;;;;90.15;19.98;;;;;;;;;;5088730;28;20052;-62
2021/12/17 07:42:00;;;;;;;61.30;18.00;;;;;;;;;;5074872;28;20085;-61
2021/12/17 07:44:26;;;;;;;94.22;20.65;;;;;;;;;;5091975;28;20040;-62
2021/12/17 07:46:53;;;;;;;128.55;22.38;;;;;;;;;;5094445;28;20036;-61
2021/12/17 07:49:19;;;;;;;80.05;20.08;;;;;;;;;;5091723;28;20121;-61
2021/12/17 07:51:45;;;;;;;119.90;21.95;;;;;;;;;;5092514;28;20064;-61
2021/12/17 07:54:11;;;;;;;121.28;22.05;;;;;;;;;;5090372;28;20055;-61
2021/12/17 07:56:38;;;;;;;83.85;19.85;;;;;;;;;;5090103;28;20043;-61
2021/12/17 07:59:05;;;;;;;85.15;20.45;;;;;;;;;;5088055;28;20047;-61
2021/12/17 08:01:31;;;;;;;108.78;22.95;;;;;;;;;;5088910;28;20039;-62
2021/12/17 08:03:57;;;;;;;108.90;21.20;;;;;;;;;;5086624;28;20036;-62
2021/12/17 08:06:23;;;;;;;108.30;21.92;;;;;;;;;;5090105;28;20127;-62
2021/12/17 08:08:50;;;;;;;111.82;22.17;;;;;;;;;;5091423;28;20063;-62
2021/12/17 08:11:16;;;;;;;106.05;22.65;;;;;;;;;;5091868;28;20044;-62
2021/12/17 08:13:44;;;;;;;88.10;20.33;;;;;;;;;;5091550;28;20078;-62
2021/12/17 08:31:24;;;;;;;62.50;18.73;;;;;;;;;;5088551;28;20147;-62
2021/12/17 08:33:50;;;;;;;78.18;19.48;;;;;;;;;;5077740;28;20040;-62
2021/12/17 08:36:17;;;;;;;93.20;20.75;;;;;;;;;;5078053;28;20066;-62
2021/12/17 08:38:44;;;;;;;72.72;19.60;;;;;;;;;;5088392;28;20064;-62
2021/12/17 08:41:10;;;;;;;126.55;25.02;;;;;;;;;;5072886;28;20048;-62
2021/12/17 08:43:36;;;;;;;100.55;22.45;;;;;;;;;;5073039;28;20037;-62
2021/12/17 08:46:03;;;;;;;111.57;25.85;;;;;;;;;;5086167;28;20044;-62
2021/12/17 08:48:29;;;;;;;115.00;22.65;;;;;;;;;;5078788;28;20050;-62
2021/12/17 08:50:56;;;;;;;67.93;20.27;;;;;;;;;;5076580;28;20097;-62
2021/12/17 08:53:22;;;;;;;93.32;22.63;;;;;;;;;;5086461;28;20040;-62
2021/12/17 08:55:48;;;;;;;90.78;21.48;;;;;;;;;;5080600;28;20111;-62
2021/12/17 08:58:14;;;;;;;98.65;21.55;;;;;;;;;;5074178;28;20044;-62
2021/12/17 09:00:42;;;;;;;80.60;20.75;;;;;;;;;;5083820;28;20161;-62
2021/12/17 09:03:10;;;;;;;76.95;20.92;;;;;;;;;;5078253;28;20098;-62
2021/12/17 09:05:37;;;;;;;109.18;22.50;;;;;;;;;;5077905;28;20052;-61
2021/12/17 09:08:04;;;;;;;97.25;22.63;;;;;;;;;;5088497;28;20510;-62
2021/12/17 09:10:31;;;;;;;100.43;22.55;;;;;;;;;;5090175;28;20117;-62
2021/12/17 09:12:57;;;;;;;89.85;21.83;;;;;;;;;;5089914;28;20395;-62
2021/12/17 09:15:23;;;;;;;90.95;21.15;;;;;;;;;;5071607;28;20109;-62
2021/12/17 09:17:50;;;;;;;107.85;23.58;;;;;;;;;;5091433;28;20119;-62
2021/12/17 09:20:17;;;;;;;71.55;19.33;;;;;;;;;;5091087;28;20464;-62
2021/12/17 09:22:44;;;;;;;61.90;18.40;;;;;;;;;;5077461;28;20491;-62
2021/12/17 09:25:10;;;;;;;78.32;19.80;;;;;;;;;;5075501;28;20495;-62
2021/12/17 09:27:36;;;;;;;60.92;18.85;;;;;;;;;;5077598;28;20484;-62
2021/12/17 09:30:04;;;;;;;75.07;20.17;;;;;;;;;;5075630;28;20128;-62
2021/12/17 09:32:31;;;;;;;71.20;19.58;;;;;;;;;;5075137;28;20101;-62
2021/12/17 09:34:58;;;;;;;59.35;17.80;;;;;;;;;;5077789;28;20032;-62
2021/12/17 09:37:24;;;;;;;55.70;18.08;;;;;;;;;;5084420;28;20050;-62
2021/12/17 09:39:50;;;;;;;60.67;18.85;;;;;;;;;;5078435;28;20079;-62
2021/12/17 09:42:16;;;;;;;70.45;19.63;;;;;;;;;;5077163;28;20561;-62
2021/12/17 09:44:42;;;;;;;72.82;20.77;;;;;;;;;;5075772;28;20211;-61
2021/12/17 09:47:09;;;;;;;70.97;18.75;;;;;;;;;;5076272;28;20121;-62
2021/12/17 09:49:35;;;;;;;71.88;19.25;;;;;;;;;;5082403;28;20059;-63
2021/12/17 09:52:02;;;;;;;68.47;18.65;;;;;;;;;;5081597;28;20098;-62
2021/12/17 09:54:28;;;;;;;63.90;16.52;;;;;;;;;;5077094;28;20052;-62
2021/12/17 09:56:54;;;;;;;63.33;17.75;;;;;;;;;;5075703;28;20036;-62
2021/12/17 09:59:20;;;;;;;61.80;17.08;;;;;;;;;;5074717;28;20041;-62
2021/12/17 10:01:47;;;;;;;59.95;16.88;;;;;;;;;;5079403;28;20097;-62
2021/12/17 10:04:13;;;;;;;46.95;15.63;;;;;;;;;;5075699;28;20458;-62
2021/12/17 10:06:40;;;;;;;55.67;16.60;;;;;;;;;;5077336;28;20045;-62
2021/12/17 10:09:06;;;;;;;47.80;14.95;;;;;;;;;;5075940;28;20115;-62
2021/12/17 10:11:32;;;;;;;49.05;15.45;;;;;;;;;;5089949;28;20054;-62
2021/12/17 10:14:18;;;;;;;35.35;13.32;;;;;;;;;;5080656;28;20045;-62
2021/12/17 10:16:44;;;;;;;47.50;13.70;;;;;;;;;;5090424;28;20044;-62
2021/12/17 10:19:10;;;;;;;34.55;13.30;;;;;;;;;;5090032;28;20032;-62
2021/12/17 10:21:38;;;;;;;33.00;12.68;;;;;;;;;;5088507;28;20064;-62
2021/12/17 10:24:05;;;;;;;32.78;11.95;;;;;;;;;;5076752;28;20460;-63
2021/12/17 10:26:41;;;;;;;30.48;11.80;;;;;;;;;;5076103;28;20055;-62
2021/12/17 10:29:07;;;;;;;36.33;12.98;;;;;;;;;;5074983;28;20044;-62
2021/12/17 10:31:36;;;;;;;29.05;10.75;;;;;;;;;;5087489;28;20063;-62
2021/12/17 10:34:05;;;;;;;29.77;11.63;;;;;;;;;;5079362;28;20438;-62
2021/12/17 10:36:32;;;;;;;28.00;11.38;;;;;;;;;;5076772;28;20055;-62
2021/12/17 10:39:00;;;;;;;26.00;11.50;;;;;;;;;;5088165;28;20036;-62
2021/12/17 10:41:27;;;;;;;24.85;10.77;;;;;;;;;;5089826;28;20044;-62
2021/12/17 10:43:59;;;;;;;25.33;10.98;;;;;;;;;;5088108;28;20085;-61
2021/12/17 10:48:56;;;;;;;17.58;9.68;;;;;;;;;;5083716;28;20052;-62
2021/12/17 10:54:08;;;;;;;20.05;10.02;;;;;;;;;;5074888;28;20496;-62
2021/12/17 10:56:39;;;;;;;18.17;8.95;;;;;;;;;;5075873;28;20094;-61
2021/12/17 10:59:06;;;;;;;13.02;7.63;;;;;;;;;;5075353;28;20056;-62
2021/12/17 11:01:39;;;;;;;19.55;10.23;;;;;;;;;;5084047;28;20047;-62
2021/12/17 11:04:08;;;;;;;17.50;9.77;;;;;;;;;;5088454;28;20052;-61
2021/12/17 11:06:46;;;;;;;14.55;9.38;;;;;;;;;;5087382;28;20052;-61
2021/12/17 11:09:12;;;;;;;18.00;9.55;;;;;;;;;;5079190;28;20041;-62
2021/12/17 11:11:42;;;;;;;16.13;9.93;;;;;;;;;;5089084;28;20108;-62
2021/12/17 11:14:09;;;;;;;20.02;9.10;;;;;;;;;;5077628;28;20040;-62
2021/12/17 11:16:37;;;;;;;18.23;9.60;;;;;;;;;;5075625;28;20048;-62
2021/12/17 11:19:04;;;;;;;19.48;9.48;;;;;;;;;;5087326;28;20442;-62
2021/12/17 11:21:31;;;;;;;20.05;10.45;;;;;;;;;;5078994;28;20040;-62
2021/12/17 11:23:57;;;;;;;15.32;9.23;;;;;;;;;;5088070;28;20115;-62
2021/12/17 11:26:23;;;;;;;15.52;9.77;;;;;;;;;;5074530;28;20495;-62
2021/12/17 11:28:50;;;;;;;16.83;10.07;;;;;;;;;;5073709;28;20098;-62
2021/12/17 11:31:17;;;;;;;14.75;9.05;;;;;;;;;;5075287;28;20066;-62
2021/12/17 11:33:44;;;;;;;18.08;9.93;;;;;;;;;;5077708;28;20036;-62
2021/12/17 11:36:10;;;;;;;17.10;10.25;;;;;;;;;;5076123;28;20478;-62
2021/12/17 11:38:42;;;;;;;20.42;10.63;;;;;;;;;;5075100;28;20080;-61
2021/12/17 11:41:16;;;;;;;16.83;10.75;;;;;;;;;;5086826;28;20043;-62
2021/12/17 11:43:53;;;;;;;18.45;11.13;;;;;;;;;;5086404;28;20420;-62
2021/12/17 11:46:27;;;;;;;16.38;10.45;;;;;;;;;;5088097;28;20056;-62
2021/12/17 11:48:55;;;;;;;17.63;9.88;;;;;;;;;;5075315;28;20055;-62
2021/12/17 11:51:24;;;;;;;23.27;10.90;;;;;;;;;;5073588;28;20172;-62
2021/12/17 11:53:55;;;;;;;16.52;10.18;;;;;;;;;;5073574;28;20053;-62
2021/12/17 11:56:34;;;;;;;22.10;11.60;;;;;;;;;;5073519;28;20766;-62
2021/12/17 11:59:01;;;;;;;21.33;11.65;;;;;;;;;;5079944;28;20044;-62
2021/12/17 12:01:46;;;;;;;19.35;10.93;;;;;;;;;;5075927;28;20040;-62
2021/12/17 12:04:26;;;;;;;22.05;11.95;;;;;;;;;;5078769;28;20044;-61
2021/12/17 12:07:00;;;;;;;21.90;11.30;;;;;;;;;;5078735;28;20050;-62
2021/12/17 12:09:45;;;;;;;25.27;12.48;;;;;;;;;;5084005;28;20044;-63
2021/12/17 12:12:11;;;;;;;21.95;12.27;;;;;;;;;;5076447;28;20044;-63
2021/12/17 12:14:37;;;;;;;22.65;12.10;;;;;;;;;;5076774;28;20074;-62
2021/12/17 12:17:03;;;;;;;21.63;12.30;;;;;;;;;;5088650;28;20048;-63
2021/12/17 12:19:49;;;;;;;20.05;11.63;;;;;;;;;;5084724;28;20475;-62
2021/12/17 12:22:29;;;;;;;25.88;13.00;;;;;;;;;;5075818;28;20098;-62
2021/12/17 12:25:13;;;;;;;25.35;12.48;;;;;;;;;;5084412;28;20048;-63
2021/12/17 12:27:46;;;;;;;29.77;13.13;;;;;;;;;;5081353;28;20072;-62
2021/12/17 12:30:13;;;;;;;23.23;12.23;;;;;;;;;;5082337;28;20055;-62
2021/12/17 12:32:59;;;;;;;20.27;11.48;;;;;;;;;;5079015;28;20045;-62
2021/12/17 12:35:26;;;;;;;22.23;11.02;;;;;;;;;;5082106;28;20040;-63
2021/12/17 12:38:20;;;;;;;21.80;10.52;;;;;;;;;;5080115;28;20044;-62
2021/12/17 12:40:51;;;;;;;18.40;10.63;;;;;;;;;;5089300;28;20039;-62
2021/12/17 12:43:29;;;;;;;16.10;10.25;;;;;;;;;;5083800;28;20069;-63
2021/12/17 12:45:56;;;;;;;18.30;10.35;;;;;;;;;;5089478;28;20437;-63
2021/12/17 12:48:29;;;;;;;15.98;9.95;;;;;;;;;;5091883;28;20123;-63
2021/12/17 12:51:13;;;;;;;18.05;10.05;;;;;;;;;;5085384;28;20044;-63
2021/12/17 12:53:45;;;;;;;19.10;10.13;;;;;;;;;;5084707;28;20139;-63
2021/12/17 12:56:16;;;;;;;15.60;9.40;;;;;;;;;;5087758;28;20093;-63
2021/12/17 12:58:46;;;;;;;15.70;9.25;;;;;;;;;;5087012;28;20052;-63
2021/12/17 13:01:15;;;;;;;16.42;8.93;;;;;;;;;;5081533;28;20415;-64
2021/12/17 13:03:41;;;;;;;14.57;8.38;;;;;;;;;;5089904;28;20040;-63
2021/12/17 13:06:15;;;;;;;15.80;7.93;;;;;;;;;;5088206;28;20035;-63
2021/12/17 13:08:41;;;;;;;12.88;8.18;;;;;;;;;;5083302;28;20036;-63
2021/12/17 13:11:08;;;;;;;15.95;8.25;;;;;;;;;;5081402;28;20056;-63
2021/12/17 13:13:44;;;;;;;17.38;8.80;;;;;;;;;;5085638;28;20068;-63
2021/12/17 13:24:05;;;;;;;20.50;9.32;;;;;;;;;;5084522;28;20043;-63
2021/12/17 13:26:31;;;;;;;10.93;6.68;;;;;;;;;;5083211;28;20052;-64
2021/12/17 13:29:00;;;;;;;10.02;6.60;;;;;;;;;;5083381;28;20036;-63
2021/12/17 13:31:33;;;;;;;11.80;7.10;;;;;;;;;;5084014;28;20063;-64
2021/12/17 13:34:00;;;;;;;11.82;7.30;;;;;;;;;;5083842;28;20036;-63
2021/12/17 13:36:26;;;;;;;13.70;7.15;;;;;;;;;;5079731;28;20056;-63
2021/12/17 13:38:57;;;;;;;13.40;7.47;;;;;;;;;;5082221;28;20114;-63
2021/12/17 13:41:36;;;;;;;11.48;7.28;;;;;;;;;;5086577;28;20576;-64
2021/12/17 13:44:02;;;;;;;11.40;7.07;;;;;;;;;;5084203;28;20051;-63
2021/12/17 13:46:29;;;;;;;10.77;6.13;;;;;;;;;;5080742;28;20523;-63
2021/12/17 13:48:55;;;;;;;11.77;6.15;;;;;;;;;;5083881;28;20048;-63
2021/12/17 13:51:21;;;;;;;12.02;6.10;;;;;;;;;;5087510;28;20092;-63
2021/12/17 13:53:48;;;;;;;8.23;5.85;;;;;;;;;;5081709;28;20097;-62
2021/12/17 13:56:15;;;;;;;9.02;5.15;;;;;;;;;;5083792;28;20374;-62
2021/12/17 13:58:42;;;;;;;8.73;5.53;;;;;;;;;;5080826;28;20044;-62
2021/12/17 14:01:08;;;;;;;9.07;5.50;;;;;;;;;;5081709;28;20178;-62
2021/12/17 14:03:38;;;;;;;10.13;5.70;;;;;;;;;;5082436;28;20097;-63
2021/12/17 14:06:18;;;;;;;8.82;5.45;;;;;;;;;;5082063;28;20101;-62
2021/12/17 14:08:44;;;;;;;7.70;5.72;;;;;;;;;;5084550;28;20437;-62
2021/12/17 14:11:19;;;;;;;7.95;5.63;;;;;;;;;;5080043;28;20105;-62
2021/12/17 14:13:46;;;;;;;9.52;5.90;;;;;;;;;;5078370;28;20063;-62
2021/12/17 14:16:14;;;;;;;10.73;6.40;;;;;;;;;;5087074;28;20044;-62
2021/12/17 14:18:41;;;;;;;10.68;6.60;;;;;;;;;;5086828;28;21645;-62
2021/12/17 14:21:08;;;;;;;11.52;6.53;;;;;;;;;;5086218;28;20089;-62
2021/12/17 14:23:39;;;;;;;11.15;7.05;;;;;;;;;;5083339;28;20059;-62
2021/12/17 14:26:07;;;;;;;9.57;6.80;;;;;;;;;;5084966;28;20056;-63
2021/12/17 14:28:36;;;;;;;11.43;6.80;;;;;;;;;;5083931;28;20101;-62
2021/12/17 14:31:04;;;;;;;13.05;7.13;;;;;;;;;;5085227;28;20117;-62
2021/12/17 14:33:32;;;;;;;10.55;6.75;;;;;;;;;;5084287;28;20032;-62
2021/12/17 14:36:00;;;;;;;13.23;6.95;;;;;;;;;;5082132;28;20060;-62
2021/12/17 14:38:38;;;;;;;15.00;7.35;;;;;;;;;;5076701;28;20053;-62
2021/12/17 14:41:05;;;;;;;15.95;6.95;;;;;;;;;;5075451;28;20076;-62
2021/12/17 14:43:37;;;;;;;11.38;7.35;;;;;;;;;;5080146;28;20044;-62
2021/12/17 14:46:13;;;;;;;10.35;7.10;;;;;;;;;;5084046;28;20087;-62
2021/12/17 14:48:54;;;;;;;12.70;7.75;;;;;;;;;;5082094;28;20094;-61
2021/12/17 15:05:09;;;;;;;13.60;8.75;;;;;;;;;;5091433;28;20039;-62
2021/12/17 15:07:36;;;;;;;14.85;8.90;;;;;;;;;;5097414;28;20071;-62
2021/12/17 15:10:03;;;;;;;13.00;8.30;;;;;;;;;;5088278;28;20048;-62
2021/12/17 15:12:38;;;;;;;16.65;8.55;;;;;;;;;;5091757;28;20116;-62
2021/12/17 15:15:12;;;;;;;16.88;9.35;;;;;;;;;;5089391;28;20071;-62
2021/12/17 15:17:38;;;;;;;13.65;8.38;;;;;;;;;;5091591;28;20406;-61
2021/12/17 15:20:06;;;;;;;14.90;8.57;;;;;;;;;;5091017;28;20550;-62
2021/12/17 15:22:32;;;;;;;15.52;8.45;;;;;;;;;;5092745;28;20426;-62
2021/12/17 15:24:58;;;;;;;14.93;8.80;;;;;;;;;;5071525;28;20055;-62
2021/12/17 15:27:24;;;;;;;17.45;9.32;;;;;;;;;;5089885;28;20060;-62
2021/12/17 15:29:50;;;;;;;16.30;8.52;;;;;;;;;;5086425;28;20055;-62
2021/12/17 15:32:17;;;;;;;18.17;9.45;;;;;;;;;;5087191;28;20056;-62
2021/12/17 15:34:43;;;;;;;16.88;9.30;;;;;;;;;;5089736;28;20403;-62
2021/12/17 15:37:09;;;;;;;17.00;9.48;;;;;;;;;;5088543;28;20059;-62
2021/12/17 15:39:35;;;;;;;21.52;9.35;;;;;;;;;;5087559;28;20063;-62
2021/12/17 15:42:01;;;;;;;17.95;8.82;;;;;;;;;;5090313;28;20035;-60
2021/12/17 15:44:28;;;;;;;16.55;9.52;;;;;;;;;;5092419;28;20032;-61
2021/12/17 15:46:54;;;;;;;18.45;9.85;;;;;;;;;;5087652;28;20060;-61
2021/12/17 15:49:20;;;;;;;20.50;9.75;;;;;;;;;;5084580;28;20051;-61
2021/12/17 15:51:46;;;;;;;16.25;9.35;;;;;;;;;;5087840;28;20495;-61
2021/12/17 15:54:13;;;;;;;17.63;9.40;;;;;;;;;;5090592;28;20044;-61
2021/12/17 15:56:43;;;;;;;18.25;9.80;;;;;;;;;;5087783;28;20403;-60
2021/12/17 15:59:09;;;;;;;16.33;9.23;;;;;;;;;;5089222;28;20497;-61
2021/12/17 16:01:35;;;;;;;18.92;8.82;;;;;;;;;;5089099;28;20040;-61
2021/12/17 16:04:01;;;;;;;17.27;9.40;;;;;;;;;;5089120;28;20068;-61
2021/12/17 16:06:27;;;;;;;23.25;9.90;;;;;;;;;;5089843;28;20044;-61
2021/12/17 16:08:57;;;;;;;22.13;9.32;;;;;;;;;;5086330;28;20148;-61
2021/12/17 16:11:49;;;;;;;18.85;9.60;;;;;;;;;;5085251;28;20051;-61
2021/12/17 16:22:25;;;;;;;17.77;9.50;;;;;;;;;;5099097;28;20055;-61
2021/12/17 16:24:51;;;;;;;19.73;10.13;;;;;;;;;;5095895;28;20185;-61
2021/12/17 16:27:17;;;;;;;22.20;10.43;;;;;;;;;;5095644;28;20130;-61
2021/12/17 16:29:43;;;;;;;24.15;10.40;;;;;;;;;;5096218;28;20063;-61
2021/12/17 16:32:09;;;;;;;30.58;12.50;;;;;;;;;;5092085;28;20440;-61
2021/12/17 16:34:35;;;;;;;28.73;12.20;;;;;;;;;;5098858;28;20471;-60
2021/12/17 16:37:02;;;;;;;42.03;14.00;;;;;;;;;;5095333;28;20046;-61
2021/12/17 16:39:28;;;;;;;41.28;14.68;;;;;;;;;;5088567;28;20040;-61
2021/12/17 16:41:54;;;;;;;34.28;13.63;;;;;;;;;;5089268;28;20138;-61
2021/12/17 16:44:36;;;;;;;33.67;14.15;;;;;;;;;;5086879;28;20067;-61
2021/12/17 16:47:02;;;;;;;35.28;14.02;;;;;;;;;;5090956;28;20445;-61
2021/12/17 16:49:33;;;;;;;26.95;13.45;;;;;;;;;;5092578;28;20051;-61
2021/12/17 16:51:59;;;;;;;39.28;13.88;;;;;;;;;;5088038;28;20391;-62
2021/12/17 16:54:26;;;;;;;29.50;13.35;;;;;;;;;;5087376;28;20074;-61
2021/12/17 16:56:52;;;;;;;31.58;13.90;;;;;;;;;;5086590;28;20040;-61
2021/12/17 16:59:18;;;;;;;41.90;13.95;;;;;;;;;;5087239;28;20067;-61
2021/12/17 17:01:44;;;;;;;26.40;12.77;;;;;;;;;;5092453;28;20496;-61
2021/12/17 17:04:11;;;;;;;27.92;11.15;;;;;;;;;;5090692;28;20544;-61
2021/12/17 17:06:38;;;;;;;22.08;11.70;;;;;;;;;;5091632;28;20407;-61
2021/12/17 17:09:07;;;;;;;30.20;12.23;;;;;;;;;;5090676;28;20431;-61
2021/12/17 17:11:35;;;;;;;26.70;10.63;;;;;;;;;;5087546;28;20062;-61
2021/12/17 17:14:02;;;;;;;23.45;9.70;;;;;;;;;;5082523;28;20497;-61
2021/12/17 17:16:28;;;;;;;26.50;10.95;;;;;;;;;;5100170;28;20433;-61
2021/12/17 17:18:55;;;;;;;24.27;9.27;;;;;;;;;;5090009;28;20483;-61
2021/12/17 17:21:21;;;;;;;19.50;8.95;;;;;;;;;;5090614;28;20062;-61
2021/12/17 17:23:48;;;;;;;20.65;8.93;;;;;;;;;;5089246;28;20129;-61
2021/12/17 17:26:15;;;;;;;15.43;8.73;;;;;;;;;;5085911;28;20049;-61
2021/12/17 17:28:43;;;;;;;22.33;9.13;;;;;;;;;;5087992;28;20116;-61
2021/12/17 17:31:09;;;;;;;24.00;9.88;;;;;;;;;;5083890;28;20049;-61
2021/12/17 17:33:38;;;;;;;17.92;8.80;;;;;;;;;;5092772;28;20487;-61
2021/12/17 17:36:06;;;;;;;25.08;9.57;;;;;;;;;;5100457;28;20456;-61
2021/12/17 17:38:32;;;;;;;18.13;8.75;;;;;;;;;;5088796;28;20032;-61
2021/12/17 17:40:58;;;;;;;20.73;8.23;;;;;;;;;;5091219;28;20051;-61